sensor_id;sensor_type;location;lat;lon;timestamp;P1;durP1;ratioP1;P2;durP2;ratioP2
63581;SDS011;49727;51.078;17.066;2023-08-20T00:30:06;15.20;;;13.57;;
63581;SDS011;49727;51.078;17.066;2023-08-20T00:45:07;16.20;;;12.53;;
63581;SDS011;49727;51.078;17.066;2023-08-20T01:00:08;18.63;;;13.45;;
63581;SDS011;49727;51.078;17.066;2023-08-20T01:15:09;13.27;;;11.87;;
63581;SDS011;49727;51.078;17.066;2023-08-20T01:30:13;13.83;;;12.27;;
63581;SDS011;49727;51.078;17.066;2023-08-20T01:45:15;14.50;;;12.40;;
63581;SDS011;49727;51.078;17.066;2023-08-20T02:00:15;13.67;;;11.43;;
63581;SDS011;49727;51.078;17.066;2023-08-20T02:15:15;13.33;;;11.83;;
63581;SDS011;49727;51.078;17.066;2023-08-20T02:30:16;16.13;;;13.53;;
63581;SDS011;49727;51.078;17.066;2023-08-20T02:45:16;16.80;;;14.33;;
63581;SDS011;49727;51.078;17.066;2023-08-20T03:00:16;19.13;;;14.57;;
63581;SDS011;49727;51.078;17.066;2023-08-20T03:15:17;19.40;;;15.10;;
63581;SDS011;49727;51.078;17.066;2023-08-20T03:30:17;15.23;;;12.90;;
63581;SDS011;49727;51.078;17.066;2023-08-20T03:45:17;17.73;;;13.53;;
63581;SDS011;49727;51.078;17.066;2023-08-20T04:00:18;23.13;;;12.87;;
63581;SDS011;49727;51.078;17.066;2023-08-20T04:15:18;18.27;;;12.40;;
63581;SDS011;49727;51.078;17.066;2023-08-20T04:30:19;17.93;;;13.40;;
63581;SDS011;49727;51.078;17.066;2023-08-20T04:45:19;13.90;;;11.65;;
63581;SDS011;49727;51.078;17.066;2023-08-20T05:00:21;15.77;;;11.70;;
63581;SDS011;49727;51.078;17.066;2023-08-20T05:15:22;14.23;;;12.43;;
63581;SDS011;49727;51.078;17.066;2023-08-20T05:30:22;14.50;;;11.50;;
63581;SDS011;49727;51.078;17.066;2023-08-20T05:45:23;14.68;;;11.60;;
63581;SDS011;49727;51.078;17.066;2023-08-20T06:00:23;14.23;;;10.52;;
63581;SDS011;49727;51.078;17.066;2023-08-20T06:15:23;11.20;;;9.60;;
63581;SDS011;49727;51.078;17.066;2023-08-20T06:30:23;13.30;;;10.80;;
63581;SDS011;49727;51.078;17.066;2023-08-20T06:45:24;10.85;;;8.70;;
63581;SDS011;49727;51.078;17.066;2023-08-20T07:00:24;10.57;;;8.65;;
63581;SDS011;49727;51.078;17.066;2023-08-20T07:15:24;10.70;;;7.72;;
63581;SDS011;49727;51.078;17.066;2023-08-20T07:30:25;9.85;;;7.47;;
63581;SDS011;49727;51.078;17.066;2023-08-20T07:45:25;12.77;;;6.68;;
63581;SDS011;49727;51.078;17.066;2023-08-20T08:00:26;6.82;;;5.88;;
63581;SDS011;49727;51.078;17.066;2023-08-20T08:15:26;10.20;;;6.95;;
63581;SDS011;49727;51.078;17.066;2023-08-20T08:30:26;7.25;;;6.25;;
63581;SDS011;49727;51.078;17.066;2023-08-20T08:45:28;8.57;;;5.00;;
63581;SDS011;49727;51.078;17.066;2023-08-20T09:00:29;5.00;;;4.33;;
63581;SDS011;49727;51.078;17.066;2023-08-20T09:15:35;6.20;;;5.60;;
63581;SDS011;49727;51.078;17.066;2023-08-20T09:30:35;6.07;;;4.73;;
63581;SDS011;49727;51.078;17.066;2023-08-20T09:45:36;7.53;;;6.03;;
63581;SDS011;49727;51.078;17.066;2023-08-20T10:00:37;7.72;;;6.70;;
63581;SDS011;49727;51.078;17.066;2023-08-20T10:15:38;6.37;;;4.93;;
63581;SDS011;49727;51.078;17.066;2023-08-20T10:30:46;7.15;;;5.05;;
63581;SDS011;49727;51.078;17.066;2023-08-20T10:46:13;8.27;;;5.63;;
63581;SDS011;49727;51.078;17.066;2023-08-20T11:01:21;7.40;;;5.03;;
63581;SDS011;49727;51.078;17.066;2023-08-20T11:16:22;8.23;;;5.90;;
63581;SDS011;49727;51.078;17.066;2023-08-20T11:31:23;8.20;;;4.35;;
63581;SDS011;49727;51.078;17.066;2023-08-20T11:46:24;7.70;;;4.70;;
63581;SDS011;49727;51.078;17.066;2023-08-20T12:01:24;6.72;;;4.93;;
63581;SDS011;49727;51.078;17.066;2023-08-20T12:16:24;6.22;;;4.50;;
63581;SDS011;49727;51.078;17.066;2023-08-20T12:31:25;6.63;;;5.38;;
63581;SDS011;49727;51.078;17.066;2023-08-20T12:46:25;8.00;;;5.57;;
63581;SDS011;49727;51.078;17.066;2023-08-20T13:01:25;5.93;;;5.30;;
63581;SDS011;49727;51.078;17.066;2023-08-20T13:16:26;8.35;;;5.18;;
63581;SDS011;49727;51.078;17.066;2023-08-20T13:31:26;7.47;;;4.70;;
63581;SDS011;49727;51.078;17.066;2023-08-20T13:46:27;7.00;;;5.07;;
63581;SDS011;49727;51.078;17.066;2023-08-20T14:01:28;6.67;;;4.60;;
63581;SDS011;49727;51.078;17.066;2023-08-20T14:16:28;7.78;;;4.70;;
63581;SDS011;49727;51.078;17.066;2023-08-20T14:31:29;5.47;;;4.05;;
63581;SDS011;49727;51.078;17.066;2023-08-20T14:46:30;5.23;;;4.70;;
63581;SDS011;49727;51.078;17.066;2023-08-20T15:01:31;5.20;;;3.90;;
63581;SDS011;49727;51.078;17.066;2023-08-20T15:16:31;5.28;;;3.92;;
63581;SDS011;49727;51.078;17.066;2023-08-20T15:31:31;7.18;;;4.13;;
63581;SDS011;49727;51.078;17.066;2023-08-20T15:46:32;6.20;;;3.92;;
63581;SDS011;49727;51.078;17.066;2023-08-20T16:01:32;8.70;;;4.53;;
63581;SDS011;49727;51.078;17.066;2023-08-20T16:16:33;5.18;;;4.55;;
63581;SDS011;49727;51.078;17.066;2023-08-20T16:31:33;7.05;;;4.95;;
63581;SDS011;49727;51.078;17.066;2023-08-20T16:46:34;7.28;;;5.20;;
63581;SDS011;49727;51.078;17.066;2023-08-20T17:01:35;8.52;;;5.10;;
63581;SDS011;49727;51.078;17.066;2023-08-20T17:16:35;8.95;;;5.70;;
63581;SDS011;49727;51.078;17.066;2023-08-20T17:31:36;6.53;;;5.85;;
63581;SDS011;49727;51.078;17.066;2023-08-20T18:01:47;11.77;;;7.43;;
63581;SDS011;49727;51.078;17.066;2023-08-20T18:16:47;15.55;;;6.97;;
63581;SDS011;49727;51.078;17.066;2023-08-20T18:31:48;15.27;;;8.38;;
63581;SDS011;49727;51.078;17.066;2023-08-20T18:46:50;8.20;;;7.27;;
63581;SDS011;49727;51.078;17.066;2023-08-20T19:01:51;9.60;;;7.47;;
63581;SDS011;49727;51.078;17.066;2023-08-20T19:16:51;9.98;;;7.60;;
63581;SDS011;49727;51.078;17.066;2023-08-20T19:31:51;9.50;;;8.30;;
63581;SDS011;49727;51.078;17.066;2023-08-20T19:46:52;9.02;;;7.72;;
63581;SDS011;49727;51.078;17.066;2023-08-20T20:01:52;12.55;;;8.63;;
63581;SDS011;49727;51.078;17.066;2023-08-20T20:16:52;14.45;;;8.77;;
63581;SDS011;49727;51.078;17.066;2023-08-20T20:31:53;11.48;;;8.48;;
63581;SDS011;49727;51.078;17.066;2023-08-20T20:46:53;13.85;;;8.95;;
63581;SDS011;49727;51.078;17.066;2023-08-20T21:01:53;15.63;;;10.13;;
63581;SDS011;49727;51.078;17.066;2023-08-20T21:16:54;14.43;;;9.13;;
63581;SDS011;49727;51.078;17.066;2023-08-20T21:31:54;13.63;;;9.90;;
63581;SDS011;49727;51.078;17.066;2023-08-20T21:46:55;13.05;;;9.50;;
63581;SDS011;49727;51.078;17.066;2023-08-20T22:01:56;10.40;;;8.87;;
63581;SDS011;49727;51.078;17.066;2023-08-20T22:16:56;11.98;;;9.07;;
63581;SDS011;49727;51.078;17.066;2023-08-20T22:31:56;10.85;;;8.63;;
63581;SDS011;49727;51.078;17.066;2023-08-20T22:46:57;11.57;;;8.68;;
63581;SDS011;49727;51.078;17.066;2023-08-20T23:01:57;13.20;;;9.45;;
63581;SDS011;49727;51.078;17.066;2023-08-20T23:16:57;17.08;;;12.90;;
63581;SDS011;49727;51.078;17.066;2023-08-20T23:31:58;24.13;;;17.02;;
63581;SDS011;49727;51.078;17.066;2023-08-20T23:46:58;17.65;;;13.32;;
